Terminal Aerodrome Forecast
Issued by NWS

Home | Current Version | Previous Version | Text Only | Print | Product List | Glossary On
Versions: 1 2 3 4 5 6 7 8 9 10 11 12 13 14 15 16 17 18 19 20 21 22 23 24 25 26 27
000
FTUS43 KDVN 250520
TAFBRL
TAF
KBRL 250520Z 2506/2606 17008KT P6SM VCSH SCT008 BKN050
      TEMPO 2506/2508 5SM -SHRA BR BKN008 OVC020
     FM250800 20012KT 2SM -SHRA BR BKN006 OVC012
     FM251300 23012KT 5SM BR BKN015
     FM251600 23014G23KT P6SM BKN040=

USA.gov is the U.S. government's official web portal to all federal, state and local government web resources and services.